Time;durP1;ratioP1;P1;durP2;ratioP2;P2;SDS_P1;SDS_P2;PMS_P1;PMS_P2;Temp;Humidity;BMP_temperature;BMP_pressure;BME280_temperature;BME280_humidity;BME280_pressure;Samples;Min_cycle;Max_cycle;Signal;HPM_P1;HPM_P2
2021/12/21 00:00:47;;;;;;;14.75;6.22;;;-1.40;99.90;;;;;;5071840;28;20084;-65
2021/12/21 00:03:13;;;;;;;20.60;5.43;;;-1.10;99.90;;;;;;5071449;28;20470;-65
2021/12/21 00:05:40;;;;;;;14.13;6.22;;;-1.40;99.90;;;;;;5072121;28;20426;-65
2021/12/21 00:08:11;;;;;;;13.65;4.93;;;-1.50;99.90;;;;;;5070830;28;20051;-65
2021/12/21 00:10:38;;;;;;;10.52;5.57;;;-1.50;99.90;;;;;;5070048;28;20048;-65
2021/12/21 00:13:09;;;;;;;11.95;6.15;;;-1.50;99.90;;;;;;5071873;28;20110;-65
2021/12/21 00:15:53;;;;;;;11.23;5.28;;;-1.50;99.90;;;;;;5070031;28;20143;-66
2021/12/21 00:23:30;;;;;;;10.90;5.32;;;-1.50;99.90;;;;;;5071364;28;20048;-65
2021/12/21 00:25:58;;;;;;;14.15;5.57;;;-1.50;99.90;;;;;;5070487;28;20510;-66
2021/12/21 00:28:24;;;;;;;12.02;6.20;;;-1.50;99.90;;;;;;5071740;28;20114;-65
2021/12/21 00:30:50;;;;;;;12.52;6.68;;;-1.60;99.90;;;;;;5069364;28;20048;-65
2021/12/21 00:33:17;;;;;;;13.38;6.38;;;-1.50;99.90;;;;;;5073969;28;20115;-65
2021/12/21 00:35:43;;;;;;;13.60;6.40;;;-1.60;99.90;;;;;;5094058;28;20075;-65
2021/12/21 00:38:08;;;;;;;11.15;7.22;;;-1.60;99.90;;;;;;5070818;28;20068;-65
2021/12/21 00:40:34;;;;;;;12.75;5.93;;;-1.60;99.90;;;;;;5106774;28;20097;-65
2021/12/21 00:43:00;;;;;;;10.70;6.22;;;-1.60;99.90;;;;;;5112343;28;20035;-65
2021/12/21 00:45:25;;;;;;;15.10;7.20;;;-1.60;99.90;;;;;;5109986;28;20051;-65
2021/12/21 00:47:51;;;;;;;12.65;6.18;;;-1.60;99.90;;;;;;5111907;28;20063;-66
2021/12/21 00:50:19;;;;;;;12.55;6.32;;;-1.60;99.90;;;;;;5112041;28;20039;-65
2021/12/21 00:52:50;;;;;;;14.95;5.82;;;-1.60;99.90;;;;;;5110863;28;20097;-65
2021/12/21 00:55:16;;;;;;;10.93;6.45;;;-1.60;99.90;;;;;;5110857;28;20073;-65
2021/12/21 00:57:42;;;;;;;12.45;6.13;;;-1.70;99.90;;;;;;5109648;28;20043;-65
2021/12/21 01:00:10;;;;;;;8.02;6.03;;;-1.70;99.90;;;;;;5111499;28;20044;-65
2021/12/21 01:02:36;;;;;;;9.75;5.85;;;-1.70;99.90;;;;;;5110396;28;20104;-65
2021/12/21 01:05:03;;;;;;;10.85;5.32;;;-1.70;99.90;;;;;;5110629;28;20043;-65
2021/12/21 01:07:42;;;;;;;15.45;6.78;;;-1.70;99.90;;;;;;5111330;28;20058;-65
2021/12/21 01:13:09;;;;;;;12.00;5.75;;;-1.80;99.90;;;;;;5096116;28;20660;-65
2021/12/21 01:18:54;;;;;;;9.55;4.90;;;-1.80;99.90;;;;;;5021053;28;20061;-65
2021/12/21 01:21:23;;;;;;;12.30;6.10;;;-1.80;99.90;;;;;;5047627;28;20824;-65
2021/12/21 01:26:34;;;;;;;13.38;6.10;;;-1.80;99.90;;;;;;5068068;28;20063;-65
2021/12/21 01:30:07;;;;;;;13.05;6.15;;;-1.80;99.90;;;;;;5094975;28;20093;-65
2021/12/21 01:32:05;;;;;;;12.40;5.68;;;-1.80;99.90;;;;;;5092546;28;20052;-65
2021/12/21 01:37:11;;;;;;;10.82;5.63;;;-1.80;99.90;;;;;;5100124;28;20056;-65
2021/12/21 01:50:40;;;;;;;9.80;5.20;;;-1.90;99.90;;;;;;5109454;28;20051;-65
2021/12/21 01:53:06;;;;;;;10.13;5.03;;;-1.90;99.90;;;;;;5110066;28;20134;-65
2021/12/21 01:55:31;;;;;;;10.82;6.45;;;-2.00;99.90;;;;;;5108729;28;20048;-65
2021/12/21 01:57:57;;;;;;;12.32;5.32;;;-2.00;99.90;;;;;;5110042;28;20048;-65
2021/12/21 02:00:23;;;;;;;11.85;5.90;;;-2.00;99.90;;;;;;5111110;28;20579;-65
2021/12/21 02:02:48;;;;;;;8.90;5.53;;;-2.00;99.90;;;;;;5108698;28;20051;-65
2021/12/21 02:05:14;;;;;;;13.32;5.55;;;-2.00;99.90;;;;;;5109696;28;20047;-65
2021/12/21 02:07:40;;;;;;;8.35;4.95;;;-2.10;99.90;;;;;;5110684;28;20058;-65
2021/12/21 02:10:06;;;;;;;12.65;5.20;;;-2.10;99.90;;;;;;5110233;28;20611;-65
2021/12/21 02:12:32;;;;;;;12.18;6.10;;;-2.10;99.90;;;;;;5126416;28;20135;-65
2021/12/21 02:15:00;;;;;;;17.48;6.20;;;-2.10;99.90;;;;;;5110875;28;20131;-65
2021/12/21 02:28:10;;;;;;;12.85;5.88;;;-2.20;99.90;;;;;;5110625;28;20402;-66
2021/12/21 02:30:37;;;;;;;11.05;5.18;;;-2.30;99.90;;;;;;5108671;28;20112;-65
2021/12/21 02:33:03;;;;;;;11.13;5.72;;;-2.20;99.90;;;;;;5110762;28;20055;-65
2021/12/21 02:35:29;;;;;;;10.23;4.97;;;-2.30;99.90;;;;;;5110447;28;20047;-65
2021/12/21 02:37:55;;;;;;;10.80;5.68;;;-3.70;99.90;;;;;;5112350;28;20112;-65
2021/12/21 02:40:20;;;;;;;11.02;5.82;;;-2.20;99.90;;;;;;5114420;28;20501;-65
2021/12/21 02:42:46;;;;;;;9.32;4.82;;;-2.30;99.90;;;;;;5112972;28;20047;-65
2021/12/21 02:45:12;;;;;;;9.60;5.68;;;-2.30;99.90;;;;;;5113758;28;20413;-65
2021/12/21 02:47:38;;;;;;;8.15;4.95;;;-2.30;99.90;;;;;;5112667;28;20036;-66
2021/12/21 02:50:04;;;;;;;9.00;5.47;;;-2.30;99.90;;;;;;5112958;28;20036;-65
2021/12/21 02:52:30;;;;;;;9.05;4.90;;;-2.30;99.90;;;;;;5113355;28;20049;-65
2021/12/21 02:54:56;;;;;;;10.68;5.72;;;-2.30;99.90;;;;;;5112875;28;20509;-65
2021/12/21 02:57:21;;;;;;;15.95;6.03;;;-2.30;99.90;;;;;;5113721;28;20074;-65
2021/12/21 02:59:47;;;;;;;10.52;6.22;;;-2.30;99.90;;;;;;5112513;28;20047;-65
2021/12/21 03:02:12;;;;;;;10.00;5.32;;;-2.30;99.90;;;;;;5112672;28;20130;-65
2021/12/21 03:04:42;;;;;;;8.75;5.07;;;-2.30;99.90;;;;;;5113254;28;20089;-65
2021/12/21 03:09:46;;;;;;;12.07;6.88;;;-2.30;99.90;;;;;;5112358;28;20062;-65
2021/12/21 03:14:48;;;;;;;8.05;5.47;;;-2.30;99.90;;;;;;5113943;28;20398;-65
2021/12/21 03:17:14;;;;;;;10.00;5.57;;;-2.30;99.90;;;;;;5113679;28;20067;-66
2021/12/21 03:19:40;;;;;;;12.65;5.43;;;-2.30;99.90;;;;;;5112968;28;20055;-65
2021/12/21 03:22:07;;;;;;;13.88;7.68;;;-2.40;99.90;;;;;;5112374;28;20055;-65
2021/12/21 03:24:34;;;;;;;11.43;5.72;;;-2.40;99.90;;;;;;5113502;28;20051;-65
2021/12/21 03:27:00;;;;;;;10.57;5.40;;;-2.40;99.90;;;;;;5112958;28;20055;-65
2021/12/21 03:29:26;;;;;;;8.20;4.57;;;-1.90;99.90;;;;;;5113785;28;20043;-65
2021/12/21 03:31:52;;;;;;;13.45;5.70;;;-2.50;99.90;;;;;;5111966;28;20044;-65
2021/12/21 03:34:18;;;;;;;10.70;5.50;;;-2.50;99.90;;;;;;5112803;28;20462;-65
2021/12/21 03:36:44;;;;;;;12.63;6.30;;;-2.50;99.90;;;;;;5113241;28;20039;-65
2021/12/21 03:39:18;;;;;;;7.10;4.75;;;-2.50;99.90;;;;;;5112196;28;20039;-65
2021/12/21 03:41:47;;;;;;;6.38;4.00;;;-2.50;99.90;;;;;;5110585;28;20058;-66
2021/12/21 03:44:14;;;;;;;9.23;4.30;;;-2.60;99.90;;;;;;5113393;28;20039;-66
2021/12/21 03:46:46;;;;;;;8.30;3.47;;;-2.60;99.90;;;;;;5110944;28;20047;-65
2021/12/21 03:51:56;;;;;;;7.72;3.63;;;-2.60;99.90;;;;;;5111790;28;20052;-66
2021/12/21 03:54:23;;;;;;;5.00;2.88;;;-2.60;99.90;;;;;;5112605;28;20048;-65
2021/12/21 03:56:50;;;;;;;6.75;3.25;;;-2.70;99.90;;;;;;5111601;28;20516;-65
2021/12/21 03:59:17;;;;;;;7.75;4.53;;;-2.70;99.90;;;;;;5113042;28;20508;-65
2021/12/21 04:01:43;;;;;;;4.75;3.67;;;-2.70;99.90;;;;;;5110621;28;20043;-66
2021/12/21 04:04:09;;;;;;;7.57;5.03;;;-2.70;99.90;;;;;;5112993;28;20100;-66
2021/12/21 04:06:36;;;;;;;7.97;4.13;;;-2.70;99.90;;;;;;5112467;28;20116;-65
2021/12/21 04:09:04;;;;;;;6.28;3.75;;;-2.80;99.90;;;;;;5110742;28;20075;-66
2021/12/21 04:11:30;;;;;;;5.95;3.60;;;-2.80;99.90;;;;;;5111189;28;20051;-65
2021/12/21 04:13:56;;;;;;;5.90;3.25;;;-2.80;99.90;;;;;;5112786;28;20062;-65
2021/12/21 04:16:22;;;;;;;5.43;3.95;;;-2.80;99.90;;;;;;5111894;28;20453;-66
2021/12/21 04:18:47;;;;;;;6.88;3.30;;;-2.80;99.90;;;;;;5112471;28;20047;-66
2021/12/21 04:21:14;;;;;;;4.45;3.75;;;-2.80;99.90;;;;;;5112555;28;20131;-65
2021/12/21 04:23:41;;;;;;;5.68;3.65;;;-2.80;99.90;;;;;;5111780;28;20077;-65
2021/12/21 04:26:08;;;;;;;8.60;4.63;;;-2.80;99.90;;;;;;5112781;28;20051;-66
2021/12/21 04:28:34;;;;;;;7.20;4.78;;;-2.80;99.90;;;;;;5112028;28;20043;-66
2021/12/21 04:31:00;;;;;;;7.32;5.57;;;-2.80;99.90;;;;;;5111789;28;20043;-66
2021/12/21 04:33:26;;;;;;;6.25;4.85;;;-2.80;99.90;;;;;;5112511;28;20043;-66
2021/12/21 04:35:51;;;;;;;10.43;5.55;;;-2.80;99.90;;;;;;5111223;28;20546;-65
2021/12/21 04:38:27;;;;;;;9.32;5.55;;;-2.80;99.90;;;;;;5112520;28;20477;-65
2021/12/21 04:41:00;;;;;;;11.75;6.43;;;-2.90;99.90;;;;;;5111909;28;20059;-65
2021/12/21 04:43:26;;;;;;;9.68;4.70;;;-2.90;99.90;;;;;;5110512;28;20058;-65
2021/12/21 04:45:52;;;;;;;7.57;4.95;;;-2.90;99.90;;;;;;5107365;28;20415;-65
2021/12/21 04:48:17;;;;;;;7.78;5.60;;;-2.90;99.90;;;;;;5093858;28;20040;-65
2021/12/21 04:50:44;;;;;;;11.38;5.10;;;-2.90;99.90;;;;;;5104780;28;20040;-65
2021/12/21 04:53:09;;;;;;;7.43;5.32;;;-2.90;99.90;;;;;;5091680;28;20410;-65
2021/12/21 04:55:35;;;;;;;10.23;6.65;;;-2.90;99.90;;;;;;5089989;28;20048;-65
2021/12/21 04:58:01;;;;;;;11.15;6.35;;;-2.90;99.90;;;;;;5103679;28;20035;-65
2021/12/21 05:00:27;;;;;;;7.80;5.25;;;-2.90;99.90;;;;;;5106404;28;20040;-65
2021/12/21 05:02:53;;;;;;;11.95;5.65;;;-2.90;99.90;;;;;;5104421;28;20044;-65
2021/12/21 05:05:19;;;;;;;13.07;5.50;;;-2.90;99.90;;;;;;5092727;28;20591;-65
2021/12/21 05:07:50;;;;;;;12.43;6.47;;;-2.90;99.90;;;;;;5107187;28;20048;-65
2021/12/21 05:10:15;;;;;;;9.73;5.55;;;-2.90;99.90;;;;;;5098537;28;20048;-65
2021/12/21 05:12:41;;;;;;;14.05;6.30;;;-2.90;99.90;;;;;;5105074;28;20088;-65
2021/12/21 05:15:07;;;;;;;8.55;6.57;;;-2.90;99.90;;;;;;5091321;28;20037;-65
2021/12/21 05:17:33;;;;;;;11.88;6.22;;;-3.00;99.90;;;;;;5104624;28;20134;-65
2021/12/21 05:19:59;;;;;;;11.13;6.07;;;-3.00;99.90;;;;;;5104035;28;20047;-65
2021/12/21 05:22:26;;;;;;;7.72;5.38;;;-2.70;99.90;;;;;;5088883;28;20103;-65
2021/12/21 05:24:52;;;;;;;11.10;6.25;;;-3.00;99.90;;;;;;5088541;28;20133;-66
2021/12/21 05:27:17;;;;;;;9.98;6.20;;;-3.00;99.90;;;;;;5103344;28;20040;-65
2021/12/21 05:29:43;;;;;;;11.32;6.32;;;-3.00;99.90;;;;;;5090791;28;20441;-65
2021/12/21 05:32:09;;;;;;;10.23;5.70;;;-3.00;99.90;;;;;;5088938;28;20135;-65
2021/12/21 05:34:34;;;;;;;9.57;5.32;;;-3.00;99.90;;;;;;5107991;28;20055;-65
2021/12/21 05:37:05;;;;;;;10.80;5.97;;;-3.00;99.90;;;;;;5110342;28;20086;-65
2021/12/21 05:39:39;;;;;;;9.15;5.28;;;-3.00;99.90;;;;;;5110288;28;20455;-66
2021/12/21 05:42:06;;;;;;;10.80;6.18;;;-3.00;99.90;;;;;;5111312;28;20130;-65
2021/12/21 05:44:32;;;;;;;13.88;6.28;;;-3.00;99.90;;;;;;5110993;28;20043;-65
2021/12/21 05:46:57;;;;;;;9.07;6.13;;;-3.00;99.90;;;;;;5110807;28;20122;-66
2021/12/21 05:49:23;;;;;;;7.55;5.75;;;-3.10;99.90;;;;;;5110028;28;20044;-65
2021/12/21 05:51:49;;;;;;;12.98;6.63;;;-3.10;99.90;;;;;;5109930;28;20501;-65
2021/12/21 05:54:18;;;;;;;7.85;5.40;;;-3.10;99.90;;;;;;5109220;28;20096;-66
2021/12/21 05:56:44;;;;;;;10.18;5.97;;;-3.10;99.90;;;;;;5110919;28;20047;-65
2021/12/21 05:59:10;;;;;;;9.07;6.57;;;-3.10;99.90;;;;;;5086890;28;20430;-65
2021/12/21 06:01:36;;;;;;;10.38;5.30;;;-3.10;99.90;;;;;;5089392;28;20048;-65
2021/12/21 06:04:02;;;;;;;7.55;5.30;;;-3.10;99.90;;;;;;5104559;28;20477;-65
2021/12/21 06:06:30;;;;;;;12.75;5.93;;;-3.10;99.90;;;;;;5110420;28;20509;-65
2021/12/21 06:08:58;;;;;;;8.38;5.45;;;-3.10;99.90;;;;;;5109488;28;20100;-65
2021/12/21 06:11:24;;;;;;;9.25;5.70;;;-3.10;99.90;;;;;;5111852;28;20434;-65
2021/12/21 06:14:10;;;;;;;8.32;5.57;;;-3.10;99.90;;;;;;5114214;28;20126;-65
2021/12/21 06:25:22;;;;;;;8.80;6.70;;;-3.10;99.90;;;;;;5106367;28;20440;-65
2021/12/21 06:27:31;;;;;;;12.30;6.13;;;-3.10;99.90;;;;;;5110416;28;20539;-66
2021/12/21 06:29:57;;;;;;;14.75;6.53;;;-3.10;99.90;;;;;;5100858;28;20044;-65
2021/12/21 06:32:23;;;;;;;11.77;6.82;;;-3.10;99.90;;;;;;5093668;28;20101;-65
2021/12/21 06:34:49;;;;;;;11.63;6.70;;;-3.10;99.90;;;;;;5095745;28;20762;-65
2021/12/21 06:37:15;;;;;;;12.77;7.00;;;-3.10;99.90;;;;;;5094289;28;20043;-65
2021/12/21 06:39:40;;;;;;;14.95;6.80;;;-3.10;99.90;;;;;;5112636;28;20482;-65
2021/12/21 06:42:07;;;;;;;10.40;6.32;;;-3.10;99.90;;;;;;5115367;28;20134;-65
2021/12/21 06:44:33;;;;;;;12.85;6.63;;;-3.10;99.90;;;;;;5103811;28;20048;-65
2021/12/21 06:51:10;;;;;;;10.75;6.82;;;-3.10;99.90;;;;;;5094837;28;20051;-65
2021/12/21 06:52:39;;;;;;;10.77;5.95;;;-3.10;99.90;;;;;;5089925;28;20056;-65
2021/12/21 06:55:05;;;;;;;11.60;6.97;;;-3.10;99.90;;;;;;5074075;28;20053;-65
2021/12/21 06:57:31;;;;;;;7.00;5.80;;;-3.10;99.90;;;;;;5073389;28;20044;-66
2021/12/21 06:59:57;;;;;;;9.82;6.15;;;-3.10;99.90;;;;;;5107355;28;20056;-65
2021/12/21 07:02:23;;;;;;;9.00;6.43;;;-3.20;99.90;;;;;;5105172;28;20047;-65
2021/12/21 07:04:49;;;;;;;13.82;7.32;;;-3.10;99.90;;;;;;5096298;28;20410;-65
2021/12/21 07:07:16;;;;;;;12.40;7.68;;;-3.20;99.90;;;;;;5106855;28;20048;-66
2021/12/21 07:09:45;;;;;;;10.30;6.25;;;-3.20;99.90;;;;;;5094495;28;20473;-65
2021/12/21 07:12:34;;;;;;;15.13;7.25;;;-3.20;99.90;;;;;;5080725;28;20050;-67
2021/12/21 07:20:29;;;;;;;7.20;5.78;;;-3.20;99.90;;;;;;5092532;28;20135;-66
2021/12/21 07:22:55;;;;;;;12.68;7.72;;;-3.20;99.90;;;;;;5093141;28;20135;-66
2021/12/21 07:25:21;;;;;;;12.07;6.80;;;-3.20;99.90;;;;;;5112541;28;20067;-65
2021/12/21 07:27:47;;;;;;;11.50;7.35;;;-3.20;99.90;;;;;;5114367;28;20493;-66
2021/12/21 07:30:13;;;;;;;9.82;5.50;;;-3.20;99.90;;;;;;5113002;28;20118;-65
2021/12/21 07:32:38;;;;;;;12.52;6.50;;;-3.30;99.90;;;;;;5112086;28;20043;-65
2021/12/21 07:35:05;;;;;;;10.18;6.15;;;-3.20;99.90;;;;;;5114198;28;20047;-66
2021/12/21 07:37:31;;;;;;;10.73;5.82;;;-3.30;99.90;;;;;;5112799;28;20047;-66
2021/12/21 07:39:57;;;;;;;8.15;5.50;;;-3.20;99.90;;;;;;5112509;28;20047;-67
2021/12/21 07:42:23;;;;;;;8.98;5.85;;;-3.30;99.90;;;;;;5114344;27;20055;-68
2021/12/21 07:44:49;;;;;;;11.05;6.35;;;-3.30;99.90;;;;;;5114033;28;20081;-65
2021/12/21 07:47:17;;;;;;;12.38;5.93;;;-3.30;99.90;;;;;;5078818;28;20574;-65
2021/12/21 07:49:42;;;;;;;10.55;6.20;;;-3.30;99.90;;;;;;5094380;28;20048;-65
2021/12/21 07:52:09;;;;;;;14.90;6.63;;;-3.30;99.90;;;;;;5097464;28;20063;-65
2021/12/21 07:54:37;;;;;;;15.48;8.85;;;-3.20;99.90;;;;;;5092725;28;20055;-65
2021/12/21 07:57:06;;;;;;;14.40;7.18;;;-3.30;99.90;;;;;;5095802;28;20044;-65
2021/12/21 07:59:32;;;;;;;8.93;6.50;;;-3.30;99.90;;;;;;5104894;28;20474;-65
2021/12/21 08:01:58;;;;;;;12.27;7.00;;;-3.30;99.90;;;;;;5100789;28;20048;-65
2021/12/21 08:04:27;;;;;;;15.48;7.13;;;-3.30;99.90;;;;;;5105859;28;20051;-65
2021/12/21 08:06:56;;;;;;;14.30;8.88;;;-3.20;99.90;;;;;;5101096;28;20055;-65
2021/12/21 08:09:21;;;;;;;9.52;6.78;;;-3.20;99.90;;;;;;5112310;28;20072;-68
2021/12/21 08:14:32;;;;;;;12.25;7.55;;;-3.20;99.90;;;;;;5083310;28;20444;-67
2021/12/21 08:16:58;;;;;;;11.38;6.45;;;-3.10;99.90;;;;;;5113666;28;20092;-67
2021/12/21 08:19:23;;;;;;;15.45;7.60;;;-3.10;99.90;;;;;;5112241;28;20405;-67
2021/12/21 08:21:49;;;;;;;13.07;7.32;;;-3.10;99.90;;;;;;5109765;28;20099;-67
2021/12/21 08:24:15;;;;;;;11.90;7.45;;;-3.00;99.90;;;;;;5088468;28;20084;-67
2021/12/21 08:26:40;;;;;;;14.93;7.95;;;-3.00;99.90;;;;;;5100235;28;20055;-69
2021/12/21 08:29:06;;;;;;;15.77;8.10;;;-3.00;99.90;;;;;;5103431;28;20444;-76
2021/12/21 08:31:31;;;;;;;14.65;7.55;;;-3.00;99.90;;;;;;5097992;28;20055;-70
2021/12/21 08:33:57;;;;;;;13.45;8.05;;;-2.90;99.90;;;;;;5102282;28;20119;-76
2021/12/21 08:36:22;;;;;;;17.88;8.88;;;-2.90;99.90;;;;;;5106366;28;20433;-67
2021/12/21 08:38:48;;;;;;;13.35;8.02;;;-2.80;99.90;;;;;;5106183;28;20135;-68
2021/12/21 08:41:14;;;;;;;11.35;7.70;;;-2.70;99.90;;;;;;5111711;28;20047;-67
2021/12/21 08:43:39;;;;;;;16.75;7.93;;;-2.70;99.90;;;;;;5099446;28;20109;-67
2021/12/21 08:46:08;;;;;;;16.75;8.68;;;-2.50;99.90;;;;;;5091404;28;20052;-67
2021/12/21 08:48:34;;;;;;;14.90;8.38;;;-2.60;99.90;;;;;;5092527;28;20125;-68
2021/12/21 08:51:01;;;;;;;18.38;9.77;;;-2.50;99.90;;;;;;5093129;28;20135;-68
2021/12/21 08:53:27;;;;;;;12.75;8.02;;;-2.40;99.90;;;;;;5104545;28;20071;-67
2021/12/21 08:55:54;;;;;;;12.02;8.40;;;-2.30;99.90;;;;;;5092265;28;20043;-67
2021/12/21 08:58:20;;;;;;;14.40;8.02;;;-2.40;99.90;;;;;;5102623;28;20058;-67
2021/12/21 09:00:46;;;;;;;18.35;8.10;;;-2.30;99.90;;;;;;5092246;28;20040;-67
2021/12/21 09:03:13;;;;;;;10.05;7.05;;;-2.20;99.90;;;;;;5092139;28;20084;-67
2021/12/21 09:05:40;;;;;;;14.45;7.40;;;-2.20;99.90;;;;;;5079913;28;20047;-67
2021/12/21 09:08:07;;;;;;;14.35;7.65;;;-2.10;99.90;;;;;;5089532;28;20399;-68
2021/12/21 09:10:33;;;;;;;11.77;7.03;;;-2.10;99.90;;;;;;5093886;28;20131;-68
2021/12/21 09:12:59;;;;;;;15.05;8.23;;;-2.00;99.90;;;;;;5093412;28;20540;-68
2021/12/21 09:15:28;;;;;;;13.02;7.38;;;-1.90;99.90;;;;;;5092783;28;20410;-69
2021/12/21 09:17:54;;;;;;;13.00;8.40;;;-1.90;99.90;;;;;;5090655;28;20051;-69
2021/12/21 09:20:23;;;;;;;11.85;7.70;;;-1.80;99.90;;;;;;5094716;28;20082;-68
2021/12/21 09:22:49;;;;;;;11.88;8.43;;;-1.80;99.90;;;;;;5111603;28;20054;-69
2021/12/21 09:25:16;;;;;;;10.52;7.72;;;-1.70;99.90;;;;;;5108596;28;20050;-68
2021/12/21 09:27:42;;;;;;;16.88;7.95;;;-1.60;99.90;;;;;;5098702;28;20048;-69
2021/12/21 09:30:11;;;;;;;12.90;8.15;;;-1.50;99.90;;;;;;5095362;28;20047;-68
2021/12/21 09:32:37;;;;;;;12.82;8.50;;;-1.50;99.90;;;;;;5086766;28;20131;-68
2021/12/21 09:35:03;;;;;;;10.27;7.97;;;-1.40;99.90;;;;;;5091315;28;20473;-68
2021/12/21 09:37:29;;;;;;;12.82;7.57;;;-1.30;99.90;;;;;;5081398;28;20091;-68
2021/12/21 09:39:56;;;;;;;15.20;7.53;;;-1.20;99.90;;;;;;5077951;28;20079;-67
2021/12/21 09:42:24;;;;;;;12.75;7.57;;;-1.10;99.90;;;;;;5076623;28;20048;-68
2021/12/21 09:44:51;;;;;;;10.77;8.02;;;-1.00;99.90;;;;;;5088728;28;20039;-68
2021/12/21 09:47:17;;;;;;;13.32;7.88;;;-0.90;99.90;;;;;;5088069;28;20055;-67
2021/12/21 09:49:44;;;;;;;12.10;7.03;;;-0.90;99.90;;;;;;5070271;28;20055;-68
2021/12/21 09:52:12;;;;;;;11.63;7.55;;;-0.80;99.90;;;;;;5074488;28;20055;-67
2021/12/21 09:54:38;;;;;;;15.40;7.53;;;-0.70;99.90;;;;;;5074909;28;20053;-68
2021/12/21 09:57:05;;;;;;;14.00;7.75;;;-0.60;99.90;;;;;;5069976;28;20440;-68
2021/12/21 09:59:30;;;;;;;14.15;8.25;;;-0.50;99.90;;;;;;5068874;28;20056;-67
2021/12/21 10:01:57;;;;;;;12.18;7.57;;;-0.50;99.90;;;;;;5083803;28;20379;-67
2021/12/21 10:04:24;;;;;;;14.70;7.88;;;-0.40;99.90;;;;;;5086354;28;20173;-66
2021/12/21 10:06:52;;;;;;;15.50;7.03;;;-0.30;99.90;;;;;;5079592;28;20640;-67
2021/12/21 10:09:20;;;;;;;13.90;7.95;;;-0.20;99.90;;;;;;5084658;28;20070;-67
2021/12/21 10:11:48;;;;;;;15.88;7.20;;;-0.10;99.90;;;;;;5087881;28;20143;-67
2021/12/21 10:14:18;;;;;;;9.77;7.68;;;0.00;99.90;;;;;;5083284;28;20044;-67
2021/12/21 10:16:47;;;;;;;14.73;8.63;;;0.00;99.90;;;;;;5079587;28;20071;-67
2021/12/21 10:19:22;;;;;;;12.40;7.32;;;0.10;99.90;;;;;;5089223;28;20070;-67
2021/12/21 10:21:48;;;;;;;12.55;7.30;;;0.20;99.90;;;;;;5089198;28;20047;-67
2021/12/21 10:24:28;;;;;;;13.50;7.88;;;0.20;99.90;;;;;;5090059;28;20640;-67
2021/12/21 10:27:08;;;;;;;9.68;7.15;;;0.30;99.90;;;;;;5089449;28;20092;-67
2021/12/21 10:29:44;;;;;;;10.65;7.50;;;0.40;99.90;;;;;;5080213;28;20040;-67
2021/12/21 10:32:24;;;;;;;11.88;7.18;;;0.40;99.90;;;;;;5079039;28;20052;-67
2021/12/21 10:35:16;;;;;;;12.10;7.22;;;0.50;99.90;;;;;;5088293;28;20043;-66
2021/12/21 10:37:42;;;;;;;8.27;5.40;;;0.60;99.90;;;;;;5090858;28;20052;-67
2021/12/21 10:40:25;;;;;;;10.63;7.15;;;0.60;99.90;;;;;;5096490;28;20036;-67
2021/12/21 10:43:17;;;;;;;;;;;0.70;99.90;;;;;;5087955;28;20043;-66
2021/12/21 10:45:44;;;;;;;13.63;6.45;;;0.80;99.90;;;;;;5088900;28;19928;-67
2021/12/21 10:48:18;;;;;;;14.30;7.07;;;0.90;99.90;;;;;;5092543;28;20502;-67
2021/12/21 10:50:44;;;;;;;10.55;6.07;;;0.90;99.90;;;;;;5095027;28;20052;-67
2021/12/21 10:53:23;;;;;;;18.48;7.97;;;1.00;99.90;;;;;;5101002;28;20046;-66
2021/12/21 10:56:04;;;;;;;15.25;7.13;;;1.00;99.90;;;;;;5098640;28;20801;-67
2021/12/21 10:58:30;;;;;;;10.43;6.88;;;1.00;99.90;;;;;;5102581;28;20090;-68
2021/12/21 11:01:02;;;;;;;13.18;6.97;;;1.10;99.90;;;;;;5100236;28;20072;-67
2021/12/21 11:03:50;;;;;;;9.60;6.88;;;1.20;99.90;;;;;;5094594;28;20093;-67
2021/12/21 11:06:19;;;;;;;15.55;6.47;;;1.20;99.90;;;;;;5108269;28;20402;-67
2021/12/21 11:08:50;;;;;;;10.23;5.88;;;1.30;99.90;;;;;;5101206;28;20490;-67
2021/12/21 11:11:33;;;;;;;10.57;6.03;;;1.40;99.90;;;;;;5103749;28;20040;-67
2021/12/21 11:14:12;;;;;;;13.95;8.15;;;1.40;99.90;;;;;;5087133;28;20512;-67
2021/12/21 11:16:48;;;;;;;10.73;6.35;;;1.50;99.90;;;;;;5094932;28;20127;-67
2021/12/21 11:19:16;;;;;;;9.80;7.53;;;1.40;99.90;;;;;;5096589;28;20047;-66
2021/12/21 11:21:43;;;;;;;14.43;7.47;;;1.50;99.90;;;;;;5097647;28;20050;-67
2021/12/21 11:24:12;;;;;;;9.43;5.90;;;1.50;99.90;;;;;;5080890;28;20040;-66
2021/12/21 11:26:39;;;;;;;11.60;6.55;;;1.60;99.90;;;;;;5081253;28;20040;-67
2021/12/21 11:29:08;;;;;;;9.23;6.95;;;1.70;99.90;;;;;;5080286;28;20059;-68
2021/12/21 11:31:42;;;;;;;11.45;6.65;;;1.60;99.90;;;;;;5086468;28;20047;-67
2021/12/21 11:34:13;;;;;;;10.00;6.72;;;1.90;99.90;;;;;;5096163;28;20451;-67
2021/12/21 11:39:31;;;;;;;9.23;6.03;;;1.80;99.90;;;;;;5093806;28;20573;-67
2021/12/21 11:41:57;;;;;;;14.13;6.40;;;2.10;99.90;;;;;;5094363;28;20054;-67
2021/12/21 11:44:29;;;;;;;9.10;5.82;;;2.00;99.90;;;;;;5095973;28;20043;-65
2021/12/21 11:46:59;;;;;;;11.15;5.53;;;2.00;99.90;;;;;;5088124;28;20389;-65
2021/12/21 11:49:47;;;;;;;10.07;5.28;;;2.00;99.90;;;;;;5095598;28;20047;-68
2021/12/21 11:52:16;;;;;;;12.90;5.90;;;2.00;99.90;;;;;;5107310;28;20137;-68
2021/12/21 11:54:51;;;;;;;9.82;6.05;;;2.10;99.90;;;;;;5092076;28;20479;-67
2021/12/21 11:57:20;;;;;;;11.57;5.68;;;2.20;99.90;;;;;;5083417;28;20130;-68
2021/12/21 11:59:48;;;;;;;9.80;5.00;;;2.20;99.90;;;;;;5087951;28;20048;-68
2021/12/21 12:02:14;;;;;;;13.85;5.93;;;2.20;99.90;;;;;;5093068;28;20085;-68
2021/12/21 12:04:40;;;;;;;9.52;5.38;;;2.30;99.90;;;;;;5092688;28;20044;-69
2021/12/21 12:07:18;;;;;;;12.07;5.53;;;2.30;99.90;;;;;;5092674;28;20057;-68
2021/12/21 12:09:44;;;;;;;11.48;6.68;;;2.40;99.90;;;;;;5091985;28;20048;-68
2021/12/21 12:12:17;;;;;;;10.95;5.15;;;2.50;99.90;;;;;;5091337;28;20051;-68
2021/12/21 12:14:45;;;;;;;10.35;5.50;;;2.50;99.90;;;;;;5091309;28;20056;-68
2021/12/21 12:17:14;;;;;;;17.15;6.18;;;2.60;99.90;;;;;;5092129;28;20052;-68
2021/12/21 12:19:43;;;;;;;8.15;4.95;;;2.60;99.90;;;;;;5087120;28;20051;-68
2021/12/21 12:22:15;;;;;;;9.88;5.68;;;2.80;99.90;;;;;;5085427;28;20497;-69
2021/12/21 12:24:54;;;;;;;8.82;5.07;;;2.70;99.90;;;;;;5089779;28;20097;-68
2021/12/21 12:27:22;;;;;;;8.20;5.38;;;2.70;99.90;;;;;;5086984;28;20044;-68
2021/12/21 12:29:57;;;;;;;13.18;5.28;;;2.80;99.90;;;;;;5088496;28;20085;-67
2021/12/21 12:32:33;;;;;;;7.50;4.47;;;2.80;99.90;;;;;;5077350;28;20071;-67
2021/12/21 12:35:03;;;;;;;9.90;4.97;;;2.80;99.90;;;;;;5078883;28;20048;-67
2021/12/21 12:37:29;;;;;;;12.50;5.43;;;2.80;99.90;;;;;;5084059;28;20684;-68
2021/12/21 12:40:00;;;;;;;11.02;6.25;;;2.80;99.90;;;;;;5091390;28;20089;-70
2021/12/21 12:42:29;;;;;;;9.23;6.07;;;2.80;99.90;;;;;;5090310;28;20059;-69
2021/12/21 12:45:16;;;;;;;10.52;5.72;;;2.80;99.90;;;;;;5088852;28;20048;-68
2021/12/21 12:47:47;;;;;;;7.93;5.75;;;2.80;99.90;;;;;;5070725;28;20044;-68
2021/12/21 12:50:26;;;;;;;9.13;5.40;;;2.80;99.90;;;;;;5076539;28;20145;-71
2021/12/21 12:53:01;;;;;;;8.15;5.68;;;2.80;99.90;;;;;;5082950;28;20056;-69
2021/12/21 12:55:39;;;;;;;10.35;6.22;;;2.80;99.90;;;;;;5087127;28;20490;-71
2021/12/21 12:58:22;;;;;;;7.90;5.30;;;2.90;99.90;;;;;;5091363;28;20101;-69
2021/12/21 13:01:00;;;;;;;9.98;5.18;;;2.90;99.90;;;;;;5095811;28;20044;-73
2021/12/21 13:03:37;;;;;;;9.20;4.80;;;2.90;99.90;;;;;;5089362;28;20043;-73
2021/12/21 13:06:22;;;;;;;9.98;5.53;;;3.00;99.90;;;;;;5092223;28;20522;-70
2021/12/21 13:08:48;;;;;;;9.77;4.60;;;2.90;99.90;;;;;;5090295;28;20141;-72
2021/12/21 13:11:19;;;;;;;7.82;5.03;;;2.90;99.90;;;;;;5090402;28;20600;-71
2021/12/21 13:13:46;;;;;;;11.57;5.40;;;2.90;99.90;;;;;;5092039;28;20137;-69
2021/12/21 13:16:15;;;;;;;7.00;4.28;;;3.00;99.90;;;;;;5090278;28;20074;-68
2021/12/21 13:18:53;;;;;;;11.15;4.85;;;3.00;99.90;;;;;;5091641;28;20379;-70
2021/12/21 13:21:21;;;;;;;8.35;5.03;;;2.90;99.90;;;;;;5091245;28;20051;-72
2021/12/21 13:23:50;;;;;;;7.35;3.78;;;2.90;99.90;;;;;;5089766;28;20055;-73
2021/12/21 13:26:16;;;;;;;8.63;5.05;;;2.90;99.90;;;;;;5090620;28;20052;-71
2021/12/21 13:28:49;;;;;;;9.20;5.68;;;2.90;99.90;;;;;;5090001;28;20052;-72
2021/12/21 13:31:16;;;;;;;;;;;2.80;99.90;;;;;;5090398;28;20456;-74
2021/12/21 13:33:42;;;;;;;11.23;5.43;;;2.80;99.90;;;;;;5090825;28;20405;-71
2021/12/21 13:36:08;;;;;;;11.23;5.50;;;2.80;99.90;;;;;;5090358;28;20044;-74
2021/12/21 13:38:36;;;;;;;10.07;5.28;;;2.70;99.90;;;;;;5079490;28;20152;-72
2021/12/21 13:41:10;;;;;;;11.38;5.85;;;2.70;99.90;;;;;;5086897;28;20122;-66
2021/12/21 13:43:38;;;;;;;8.75;4.70;;;2.70;99.90;;;;;;5071288;28;20458;-67
2021/12/21 13:46:07;;;;;;;10.05;5.00;;;2.60;99.90;;;;;;5070990;28;20147;-67
2021/12/21 13:48:35;;;;;;;13.23;4.75;;;2.80;99.90;;;;;;5093158;28;20055;-66
2021/12/21 13:51:14;;;;;;;6.38;4.00;;;2.70;99.90;;;;;;5073029;28;20048;-66
2021/12/21 13:53:48;;;;;;;6.30;3.88;;;2.70;99.90;;;;;;5070484;28;20076;-67
2021/12/21 13:56:19;;;;;;;9.95;4.38;;;2.60;99.90;;;;;;5085841;28;20093;-67
2021/12/21 13:58:45;;;;;;;6.72;3.80;;;2.60;99.90;;;;;;5097189;28;20070;-66